»·PEaware :: ASA1370 KSEA-KRNO

ASA1370 :: KSEA-KRNO

FLIGHT INFORMATION

Flight Status: Arrived
Operator:
Alaska Airlines
More flights by this operator :: More flights under this callsign
Pilot: Michael F. (26726)
Aircraft: BOEING 737-800
(B738)
More flights by this aircraft type
Origin: KSEA Seattle-Tacoma Intl
United States
Destination: KRNO Reno/Tahoe Intl
United States
More flights between these airports :: More routes between these airports
Route: SUMMA2 LKV HARTT HARTT1
File this flight plan on PilotEdge
Remarks: RMK / SIMBRIEF
Altitude:
(Current/Filed)
37,000ft
Speed:
(Current/Filed)
438kts
Departed: 14-Jan-21 07:36 PM
Arrived: 14-Jan-21 08:52 PM
Distance/Time
Traveled:
489nm/1:16
Distance/Time
To Go:
Arrived

Flight Plot

Page will automatically refresh every two minutes.

Flight plan parsing failed; only flown route is shown


Map Options




Map Legend


Flown Route
Filed Route
Departure Airport
Arrival Airport
Navaid (VOR, NDB)
Fix

Horizontal Profiles

Position Reports

Time Latitude Longitude Heading Altitude Ground
Speed
14-Jan-21 19:04 47.446018 -122.303056 282 442ft 0kts
14-Jan-21 19:05 47.446018 -122.303056 282 442ft 0kts
14-Jan-21 19:06 47.446018 -122.303056 282 442ft 0kts
14-Jan-21 19:07 47.446018 -122.303056 282 442ft 0kts
14-Jan-21 19:08 47.446018 -122.303056 282 442ft 0kts
14-Jan-21 19:09 47.446018 -122.303056 282 442ft 0kts
14-Jan-21 19:10 47.446018 -122.303056 282 442ft 0kts
14-Jan-21 19:11 47.446018 -122.303056 282 442ft 0kts
14-Jan-21 19:12 47.446018 -122.303056 282 442ft 0kts
14-Jan-21 19:13 47.446018 -122.303056 282 442ft 0kts
14-Jan-21 19:14 47.446018 -122.303056 282 442ft 0kts
14-Jan-21 19:15 47.446018 -122.303056 282 442ft 0kts
14-Jan-21 19:16 47.446018 -122.303056 282 442ft 0kts
14-Jan-21 19:17 47.446018 -122.303056 282 442ft 0kts
14-Jan-21 19:18 47.446018 -122.303056 282 442ft 0kts
14-Jan-21 19:19 47.446018 -122.303056 282 442ft 0kts
14-Jan-21 19:20 47.446018 -122.303056 282 442ft 0kts
14-Jan-21 19:21 47.446018 -122.303056 282 442ft 0kts
14-Jan-21 19:22 47.446008 -122.302990 283 442ft 1kts
14-Jan-21 19:23 47.445602 -122.302420 24 442ft 0kts
14-Jan-21 19:24 47.445602 -122.302420 24 442ft 0kts
14-Jan-21 19:25 47.445602 -122.302420 24 442ft 0kts
14-Jan-21 19:26 47.445741 -122.302325 24 442ft 4kts
14-Jan-21 19:27 47.447644 -122.304281 273 442ft 7kts
14-Jan-21 19:28 47.447652 -122.304658 271 442ft 0kts
14-Jan-21 19:29 47.447675 -122.305734 279 442ft 7kts
14-Jan-21 19:30 47.450487 -122.306274 359 442ft 14kts
14-Jan-21 19:31 47.455324 -122.306225 0 442ft 19kts
14-Jan-21 19:32 47.461219 -122.306168 0 442ft 19kts
14-Jan-21 19:33 47.463450 -122.306218 341 442ft 0kts
14-Jan-21 19:34 47.461613 -122.307780 180 442ft 34kts
14-Jan-21 19:35 47.424848 -122.307927 180 2007ft 168kts
14-Jan-21 19:36 47.371505 -122.308589 183 4548ft 219kts
14-Jan-21 19:37 47.305331 -122.309628 183 7647ft 249kts
14-Jan-21 19:38 47.234698 -122.300111 156 11014ft 272kts
14-Jan-21 19:39 47.160923 -122.254998 170 12913ft 315kts
14-Jan-21 19:40 47.071455 -122.210809 170 15416ft 351kts
14-Jan-21 19:41 46.976581 -122.164130 170 18449ft 367kts
14-Jan-21 19:42 46.877188 -122.115335 170 21142ft 387kts
14-Jan-21 19:43 46.772399 -122.064113 170 23540ft 405kts
14-Jan-21 19:44 46.663130 -122.010914 170 25739ft 420kts
14-Jan-21 19:45 46.549756 -121.961769 175 27574ft 430kts
14-Jan-21 19:46 46.432624 -121.917485 173 29356ft 440kts
14-Jan-21 19:47 46.313047 -121.871809 174 30727ft 448kts
14-Jan-21 19:48 46.191308 -121.825180 174 31924ft 452kts
14-Jan-21 19:49 46.070177 -121.779209 174 33270ft 448kts
14-Jan-21 19:50 45.949872 -121.733710 174 34457ft 444kts
14-Jan-21 19:51 45.830385 -121.688745 174 35453ft 443kts
14-Jan-21 19:52 45.710862 -121.643967 174 36312ft 444kts
14-Jan-21 19:53 45.591492 -121.599435 174 37095ft 444kts
14-Jan-21 19:54 45.471259 -121.554849 173 37516ft 451kts
14-Jan-21 19:55 45.349434 -121.509720 173 37516ft 452kts
14-Jan-21 19:56 45.229130 -121.465451 173 37513ft 445kts
14-Jan-21 19:57 45.108669 -121.421338 173 37509ft 448kts
14-Jan-21 19:58 44.987500 -121.377130 173 37499ft 449kts
14-Jan-21 19:59 44.866714 -121.333253 173 37489ft 449kts
14-Jan-21 20:00 44.745179 -121.289294 173 37481ft 450kts
14-Jan-21 20:01 44.623873 -121.245618 173 37477ft 451kts
14-Jan-21 20:02 44.501828 -121.201864 173 37478ft 451kts
14-Jan-21 20:03 44.380071 -121.158392 173 37472ft 452kts
14-Jan-21 20:04 44.262821 -121.116712 173 37468ft 452kts
14-Jan-21 20:05 44.140507 -121.073416 173 37470ft 453kts
14-Jan-21 20:06 44.018168 -121.030295 173 37477ft 454kts
14-Jan-21 20:07 43.895286 -120.987168 172 37482ft 456kts
14-Jan-21 20:08 43.771892 -120.944033 172 37466ft 458kts
14-Jan-21 20:09 43.648203 -120.900994 172 37466ft 458kts
14-Jan-21 20:10 43.524355 -120.858067 172 37476ft 459kts
14-Jan-21 20:11 43.399941 -120.815144 172 37479ft 460kts
14-Jan-21 20:12 43.275360 -120.772343 172 37494ft 460kts
14-Jan-21 20:13 43.150974 -120.729777 172 37494ft 461kts
14-Jan-21 20:14 43.026529 -120.687377 172 37494ft 461kts
14-Jan-21 20:16 42.901569 -120.644977 172 37493ft 462kts
14-Jan-21 20:17 42.776922 -120.602865 172 37495ft 462kts
14-Jan-21 20:18 42.651608 -120.560693 172 37494ft 463kts
14-Jan-21 20:19 42.526452 -120.518766 171 37495ft 464kts
14-Jan-21 20:20 42.400838 -120.479771 173 37497ft 463kts
14-Jan-21 20:21 42.274388 -120.441881 173 37495ft 466kts
14-Jan-21 20:22 42.147928 -120.404304 173 37494ft 466kts
14-Jan-21 20:23 42.020933 -120.366502 173 37495ft 467kts
14-Jan-21 20:24 41.893827 -120.328906 172 37496ft 467kts
14-Jan-21 20:25 41.767142 -120.291571 173 37495ft 466kts
14-Jan-21 20:26 41.640023 -120.254256 173 37496ft 466kts
14-Jan-21 20:27 41.513326 -120.217220 173 37495ft 466kts
14-Jan-21 20:28 41.386520 -120.180297 173 37498ft 466kts
14-Jan-21 20:29 41.259327 -120.143422 173 37419ft 468kts
14-Jan-21 20:30 41.132930 -120.106934 173 34541ft 461kts
14-Jan-21 20:31 41.010311 -120.071664 173 31672ft 446kts
14-Jan-21 20:32 40.887874 -120.036721 173 29508ft 472kts
14-Jan-21 20:32 40.780045 -120.004434 170 27596ft 473kts
14-Jan-21 20:33 40.653424 -119.962742 170 25357ft 463kts
14-Jan-21 20:35 40.510121 -119.916698 170 22818ft 445kts
14-Jan-21 20:35 40.411333 -119.885164 169 21071ft 431kts
14-Jan-21 20:36 40.296678 -119.848539 169 19042ft 417kts
14-Jan-21 20:37 40.185273 -119.813147 168 16592ft 405kts
14-Jan-21 20:38 40.085051 -119.781192 169 14764ft 337kts
14-Jan-21 20:39 39.998780 -119.768056 183 13278ft 303kts
14-Jan-21 20:40 39.917007 -119.767225 175 12034ft 285kts
14-Jan-21 20:41 39.837023 -119.750734 173 12020ft 292kts
14-Jan-21 20:42 39.756921 -119.749129 193 11610ft 295kts
14-Jan-21 20:43 39.678883 -119.768843 193 10314ft 276kts
14-Jan-21 20:44 39.605578 -119.789524 193 8920ft 263kts
14-Jan-21 20:45 39.537764 -119.808942 192 8072ft 239kts
14-Jan-21 20:46 39.501440 -119.753976 80 8111ft 244kts
14-Jan-21 20:47 39.560558 -119.718075 6 7571ft 235kts
14-Jan-21 20:48 39.606849 -119.740728 282 6512ft 182kts
14-Jan-21 20:49 39.571239 -119.769384 179 5878ft 187kts
14-Jan-21 20:50 39.519478 -119.769236 180 4656ft 179kts
14-Jan-21 20:51 39.493011 -119.770058 243 4424ft 8kts
14-Jan-21 20:52 39.493884 -119.770674 352 4424ft 3kts
14-Jan-21 20:53 39.496834 -119.770742 357 4424ft 12kts
14-Jan-21 20:54 39.500963 -119.771510 358 4424ft 14kts
14-Jan-21 20:55 39.503991 -119.771496 359 4424ft 10kts
14-Jan-21 20:56 39.505883 -119.772333 270 4424ft 2kts
14-Jan-21 20:57 39.506256 -119.772777 359 4424ft 3kts
14-Jan-21 20:58 39.506570 -119.772776 359 4424ft 0kts
14-Jan-21 20:59 39.506570 -119.772776 359 4424ft 0kts
14-Jan-21 21:00 39.506570 -119.772776 359 4424ft 0kts
14-Jan-21 21:01 39.506570 -119.772776 359 4424ft 0kts
14-Jan-21 21:02 39.506570 -119.772776 359 4424ft 0kts
14-Jan-21 21:03 39.506570 -119.772776 359 4424ft 0kts
14-Jan-21 21:04 39.506570 -119.772776 359 4424ft 0kts
14-Jan-21 21:05 39.506570 -119.772776 359 4424ft 0kts

Navigation Log

Ident Type
Flight plan parsing failed, navigation log unavailable